Time;durP1;ratioP1;P1;durP2;ratioP2;P2;SDS_P1;SDS_P2;PMS_P1;PMS_P2;Temp;Humidity;BMP_temperature;BMP_pressure;BME280_temperature;BME280_humidity;BME280_pressure;Samples;Min_cycle;Max_cycle;Signal;HPM_P1;HPM_P2
2023/10/01 00:00:30;;;;;;;16.05;5.47;;;;;;;-145.69;61.82;52095.84;5127575;27;20201;-78
2023/10/01 00:02:57;;;;;;;17.88;6.07;;;;;;;-145.69;62.63;52087.94;5137054;27;20227;-78
2023/10/01 00:05:25;;;;;;;15.80;4.97;;;;;;;-145.69;62.44;52107.72;5131404;27;20207;-78
2023/10/01 00:07:52;;;;;;;18.02;5.45;;;;;;;-145.69;63.07;52107.72;5116704;27;20270;-79
2023/10/01 00:10:22;;;;;;;20.83;6.72;;;;;;;-145.69;63.21;52085.94;5114871;28;20588;-78
2023/10/01 00:12:50;;;;;;;17.83;5.95;;;;;;;-145.69;63.94;52103.78;5116565;28;20587;-78
2023/10/01 00:15:18;;;;;;;18.90;6.23;;;;;;;-145.69;63.81;52103.78;5117541;27;20200;-78
2023/10/01 00:17:48;;;;;;;16.33;5.83;;;;;;;-145.69;63.71;52115.66;5116188;28;20683;-79
2023/10/01 00:20:18;;;;;;;20.53;6.20;;;;;;;-145.69;63.88;52099.81;5116100;28;20648;-79
2023/10/01 00:22:46;;;;;;;18.67;6.00;;;;;;;-145.69;63.84;52151.28;5115824;28;20205;-78
2023/10/01 00:25:14;;;;;;;18.73;6.80;;;;;;;-145.69;64.02;52115.66;5116273;28;20194;-78
2023/10/01 00:27:42;;;;;;;20.03;7.00;;;;;;;-145.69;64.61;52119.63;5116192;28;20208;-78
2023/10/01 00:30:10;;;;;;;18.10;6.47;;;;;;;-145.69;64.22;52089.91;5125135;27;20248;-79
2023/10/01 00:32:36;;;;;;;16.37;6.73;;;;;;;-145.69;63.75;52139.41;5114928;27;20212;-78
2023/10/01 00:35:05;;;;;;;16.60;5.85;;;;;;;-145.69;63.88;52101.78;5115905;27;20189;-79
2023/10/01 00:37:33;;;;;;;16.95;6.53;;;;;;;-145.69;63.92;52119.63;5122288;27;20532;-78
2023/10/01 00:40:00;;;;;;;15.48;6.43;;;;;;;-145.69;63.82;52111.69;5136127;27;20201;-79
2023/10/01 00:42:28;;;;;;;17.95;5.90;;;;;;;-145.69;64.11;52141.41;5136410;27;20659;-78
2023/10/01 00:44:57;;;;;;;19.77;6.17;;;;;;;-145.69;63.61;52117.63;5123458;27;20209;-79
2023/10/01 00:47:28;;;;;;;18.63;6.10;;;;;;;-145.69;64.31;52131.50;5115604;28;20198;-78
2023/10/01 00:49:57;;;;;;;19.03;6.47;;;;;;;-145.69;65.11;52135.47;5115300;28;20208;-78
2023/10/01 00:52:24;;;;;;;20.50;6.80;;;;;;;-145.69;64.66;52111.69;5115798;28;20197;-78
2023/10/01 00:54:52;;;;;;;17.57;6.07;;;;;;;-145.69;64.19;52119.63;5115347;28;20712;-78
2023/10/01 00:57:18;;;;;;;16.43;5.87;;;;;;;-145.69;64.09;52107.72;5115673;28;20201;-78
2023/10/01 00:59:45;;;;;;;19.83;6.30;;;;;;;-145.69;64.71;52139.41;5122165;27;20644;-78
2023/10/01 01:02:15;;;;;;;16.30;5.93;;;;;;;-145.69;65.06;52111.69;5135762;27;20215;-78
2023/10/01 01:04:45;;;;;;;21.27;6.40;;;;;;;-145.69;64.98;52107.72;5130424;27;20280;-78
2023/10/01 01:07:19;;;;;;;23.97;6.87;;;;;;;-145.69;65.14;52139.41;5116205;27;20618;-78
2023/10/01 01:09:47;;;;;;;16.63;6.80;;;;;;;-145.69;65.58;52115.66;5133115;27;20646;-78
2023/10/01 01:12:15;;;;;;;19.47;6.90;;;;;;;-145.69;65.31;52125.56;5133605;27;20565;-78
2023/10/01 01:14:44;;;;;;;17.47;6.23;;;;;;;-145.69;64.96;52135.47;5114775;28;20201;-78
2023/10/01 01:17:10;;;;;;;26.83;6.93;;;;;;;-145.69;65.59;52141.41;5113164;27;20247;-79
2023/10/01 01:19:39;;;;;;;20.47;6.43;;;;;;;-145.69;65.31;52095.84;5114714;28;20580;-79
2023/10/01 01:22:09;;;;;;;19.03;7.07;;;;;;;-145.69;65.27;52121.59;5116194;27;20200;-78
2023/10/01 01:24:37;;;;;;;18.33;6.80;;;;;;;-145.69;65.41;52147.34;5115256;28;20197;-78
2023/10/01 01:27:06;;;;;;;20.13;6.13;;;;;;;-145.69;66.06;52131.50;5114752;28;20201;-79
2023/10/01 01:29:40;;;;;;;21.20;7.23;;;;;;;-145.69;65.78;52135.47;5115011;27;20886;-78
2023/10/01 01:32:14;;;;;;;21.47;6.80;;;;;;;-145.69;66.47;52155.25;5114575;28;20224;-78
2023/10/01 01:34:41;;;;;;;16.57;6.10;;;;;;;-145.69;67.25;52119.63;5123420;27;20200;-79
2023/10/01 01:37:09;;;;;;;19.07;6.43;;;;;;;-145.69;66.28;52109.72;5114568;28;20238;-78
2023/10/01 01:39:48;;;;;;;14.03;5.70;;;;;;;-145.69;66.19;52125.56;5114710;28;20197;-79
2023/10/01 01:42:19;;;;;;;18.33;7.00;;;;;;;-145.69;65.93;52127.53;5115131;27;20201;-79
2023/10/01 01:44:47;;;;;;;18.83;6.03;;;;;;;-145.69;65.82;52131.50;5134676;27;20647;-78
2023/10/01 01:47:15;;;;;;;15.50;6.17;;;;;;;-145.69;65.76;52123.56;5135010;27;20677;-79
2023/10/01 01:49:43;;;;;;;25.07;6.93;;;;;;;-145.69;66.56;52127.53;5133297;27;20193;-79
2023/10/01 01:52:09;;;;;;;18.03;6.60;;;;;;;-145.69;66.11;52127.53;5134571;27;20563;-80
2023/10/01 01:54:39;;;;;;;19.37;6.97;;;;;;;-145.69;66.58;52121.59;5134694;27;20681;-79
2023/10/01 01:57:13;;;;;;;22.10;6.83;;;;;;;-145.69;66.41;52137.44;5134320;27;20205;-79
2023/10/01 01:59:41;;;;;;;25.13;7.53;;;;;;;-145.69;66.89;52129.50;5126249;27;20200;-79
2023/10/01 02:02:09;;;;;;;22.80;6.70;;;;;;;-145.69;66.28;52113.66;5119590;27;20197;-79
2023/10/01 02:04:58;;;;;;;27.70;8.13;;;;;;;-145.69;66.13;52107.72;5134441;27;20203;-79
2023/10/01 02:07:27;;;;;;;22.37;6.97;;;;;;;-145.69;65.96;52137.44;5134571;27;20205;-79
2023/10/01 02:09:54;;;;;;;17.90;6.30;;;;;;;-145.69;65.93;52111.69;5133845;27;20208;-79
2023/10/01 02:12:24;;;;;;;19.73;6.37;;;;;;;-145.69;65.94;52129.50;5113908;28;20231;-79
2023/10/01 02:14:54;;;;;;;19.53;7.30;;;;;;;-145.69;65.95;52131.50;5114124;28;20559;-79
2023/10/01 02:17:22;;;;;;;20.53;6.93;;;;;;;-145.69;66.08;52139.41;5113707;28;20232;-79
2023/10/01 02:19:49;;;;;;;23.87;7.30;;;;;;;-145.69;65.32;52123.56;5113708;28;20240;-79
2023/10/01 02:22:17;;;;;;;19.23;7.37;;;;;;;-145.69;66.08;52133.47;5113492;28;20656;-79
2023/10/01 02:24:54;;;;;;;21.17;7.03;;;;;;;-145.69;65.21;52127.53;5113693;28;20309;-79
2023/10/01 02:27:28;;;;;;;22.70;7.43;;;;;;;-145.69;66.97;52131.50;5113621;28;20551;-79
2023/10/01 02:30:14;;;;;;;22.13;7.20;;;;;;;-145.69;66.68;52133.47;5123659;27;20245;-79
2023/10/01 02:32:49;;;;;;;19.67;6.57;;;;;;;-145.69;66.73;52119.63;5122485;27;20620;-78
2023/10/01 02:37:58;;;;;;;25.93;8.17;;;;;;;-145.69;66.98;52117.63;5133673;27;20200;-78
2023/10/01 02:40:23;;;;;;;21.93;7.73;;;;;;;-145.69;66.78;52141.41;5118624;27;20209;-79
2023/10/01 02:42:56;;;;;;;25.13;8.03;;;;;;;-145.69;66.92;52103.78;5113640;28;20211;-79
2023/10/01 02:45:31;;;;;;;24.60;7.87;;;;;;;-145.69;67.37;52129.50;5113405;28;20287;-79
2023/10/01 02:48:16;;;;;;;26.87;7.23;;;;;;;-145.69;67.03;52103.78;5113863;28;20201;-79
2023/10/01 02:50:45;;;;;;;16.57;6.47;;;;;;;-145.69;67.21;52137.44;5118480;28;20201;-78
2023/10/01 02:53:13;;;;;;;18.80;6.83;;;;;;;-145.69;67.61;52135.47;5118293;28;20197;-78
2023/10/01 02:55:44;;;;;;;18.30;6.93;;;;;;;-145.69;67.30;52177.03;5116559;28;20247;-79
2023/10/01 02:58:20;;;;;;;19.93;6.77;;;;;;;-145.69;67.81;52101.78;5113517;28;20211;-78
2023/10/01 03:00:46;;;;;;;24.00;7.13;;;;;;;-145.69;67.74;52131.50;5130228;28;20220;-78
2023/10/01 03:03:17;;;;;;;21.57;7.10;;;;;;;-145.69;67.28;52139.41;5121273;27;20197;-78
2023/10/01 03:05:46;;;;;;;24.20;7.43;;;;;;;-145.69;68.17;52159.22;5113422;28;20235;-79
2023/10/01 03:08:40;;;;;;;23.80;6.37;;;;;;;-145.69;68.62;52129.50;5113278;28;20596;-78
2023/10/01 03:11:04;;;;;;;24.73;7.83;;;;;;;-145.69;68.56;52186.94;5109517;28;20221;-78
2023/10/01 03:13:32;;;;;;;21.17;6.47;;;;;;;-145.69;68.49;52153.28;5113044;28;20206;-78
2023/10/01 03:18:55;;;;;;;24.63;7.93;;;;;;;-145.69;68.29;52169.13;5030191;28;20349;-79
2023/10/01 03:22:13;;;;;;;22.00;7.37;;;;;;;-145.69;67.81;52133.47;5092577;28;20213;-78
2023/10/01 03:24:25;;;;;;;21.67;7.20;;;;;;;-145.69;68.32;52159.22;5112964;28;20679;-79
2023/10/01 03:26:57;;;;;;;24.43;7.80;;;;;;;-145.69;68.34;52135.47;5113032;28;20205;-78
2023/10/01 03:29:34;;;;;;;22.90;8.17;;;;;;;-145.69;69.26;52143.38;5126217;28;20195;-79
2023/10/01 03:32:27;;;;;;;23.70;8.27;;;;;;;-145.69;68.17;52155.25;5131205;27;20220;-79
2023/10/01 03:34:47;;;;;;;22.23;7.17;;;;;;;-145.69;68.19;52143.38;5115397;28;20205;-78
2023/10/01 03:37:19;;;;;;;22.40;6.73;;;;;;;-145.69;68.17;52151.28;5116745;28;20231;-79
2023/10/01 03:39:46;;;;;;;18.50;6.57;;;;;;;-145.69;68.03;52141.41;5117202;28;20197;-78
2023/10/01 03:42:17;;;;;;;16.50;6.47;;;;;;;-145.69;68.52;52147.34;5116778;27;20272;-78
2023/10/01 03:45:19;;;;;;;25.60;7.03;;;;;;;-145.69;69.19;52147.34;5116702;28;20229;-78
2023/10/01 03:47:57;;;;;;;23.13;7.43;;;;;;;-145.69;69.14;52131.50;5116841;27;20207;-79
2023/10/01 03:50:25;;;;;;;20.70;6.63;;;;;;;-145.69;68.64;52109.72;5116841;28;20201;-79
2023/10/01 03:52:54;;;;;;;27.55;8.57;;;;;;;-145.69;69.88;52139.41;5116084;28;20497;-78
2023/10/01 03:55:28;;;;;;;23.30;8.07;;;;;;;-145.69;68.89;52127.53;5116445;28;20204;-78
2023/10/01 03:58:05;;;;;;;19.70;7.10;;;;;;;-145.69;68.24;52145.34;5116659;27;20284;-78
2023/10/01 04:00:34;;;;;;;18.90;7.03;;;;;;;-145.69;68.82;52119.63;5095978;28;20565;-78
2023/10/01 04:03:02;;;;;;;24.30;7.40;;;;;;;-145.69;68.24;52159.22;5107400;27;20660;-78
2023/10/01 04:05:31;;;;;;;17.03;6.53;;;;;;;-145.69;68.28;52151.28;5116476;27;20207;-79
2023/10/01 04:07:59;;;;;;;18.40;6.63;;;;;;;-145.69;68.40;52149.31;5116335;28;20223;-78
2023/10/01 04:10:30;;;;;;;16.87;6.73;;;;;;;-145.69;68.77;52143.38;5116364;27;20197;-78
2023/10/01 04:13:11;;;;;;;19.27;6.83;;;;;;;-145.69;69.41;52147.34;5116344;28;20278;-78
2023/10/01 04:15:43;;;;;;;17.23;6.47;;;;;;;-145.69;68.51;52141.41;5116084;28;20656;-78
2023/10/01 04:18:19;;;;;;;22.13;7.07;;;;;;;-145.69;67.86;52159.22;5116200;28;20225;-79
2023/10/01 04:20:49;;;;;;;18.67;7.17;;;;;;;-145.69;67.44;52198.81;5116217;28;20635;-78
2023/10/01 04:23:25;;;;;;;24.03;7.63;;;;;;;-145.69;67.53;52135.47;5105729;27;20552;-78
2023/10/01 04:25:52;;;;;;;19.73;6.83;;;;;;;-145.69;67.71;52153.28;5117567;27;20197;-79
2023/10/01 04:28:19;;;;;;;19.83;6.33;;;;;;;-145.69;66.58;52125.56;5136615;27;20197;-79
2023/10/01 04:30:51;;;;;;;20.33;7.00;;;;;;;-145.69;67.16;52153.28;5131612;27;20676;-78
2023/10/01 04:33:18;;;;;;;17.63;6.27;;;;;;;-145.69;67.29;52131.50;5127721;27;20233;-79
2023/10/01 04:35:51;;;;;;;27.90;7.33;;;;;;;-145.69;67.40;52147.34;5136279;27;20197;-79
2023/10/01 04:38:20;;;;;;;17.33;6.60;;;;;;;-145.69;66.80;52149.31;5136509;27;20204;-78
2023/10/01 04:40:48;;;;;;;24.03;6.97;;;;;;;-145.69;66.37;52155.25;5132835;27;20609;-78
2023/10/01 04:43:16;;;;;;;23.00;6.40;;;;;;;-145.69;67.28;52133.47;5134926;27;20192;-78
2023/10/01 04:45:44;;;;;;;23.70;6.77;;;;;;;-145.69;68.02;52135.47;5131880;27;20284;-78
2023/10/01 04:48:16;;;;;;;21.63;6.83;;;;;;;-145.69;67.33;52131.50;5136254;27;20563;-78
2023/10/01 04:50:49;;;;;;;17.23;6.40;;;;;;;-145.69;66.57;52151.28;5135187;27;20279;-78
2023/10/01 04:53:20;;;;;;;20.73;6.40;;;;;;;-145.69;66.64;52167.13;5134597;27;20225;-78
2023/10/01 04:55:57;;;;;;;21.50;6.50;;;;;;;-145.69;66.95;52143.38;5136100;27;20224;-78
2023/10/01 04:58:26;;;;;;;21.57;7.10;;;;;;;-145.69;67.42;52111.69;5135865;27;20196;-78
2023/10/01 05:00:55;;;;;;;19.83;6.33;;;;;;;-145.69;68.56;52135.47;5135862;27;20676;-79
2023/10/01 05:03:38;;;;;;;22.93;7.57;;;;;;;-145.69;69.81;52137.44;5123616;27;20225;-78
2023/10/01 05:06:07;;;;;;;17.53;6.30;;;;;;;-145.69;69.80;52139.41;5112029;28;20247;-79
2023/10/01 05:08:38;;;;;;;18.83;6.67;;;;;;;-145.69;69.42;52186.94;5115118;28;20197;-78
2023/10/01 05:11:05;;;;;;;17.33;6.73;;;;;;;-145.69;69.96;52167.13;5115401;27;20254;-78
2023/10/01 05:13:34;;;;;;;20.77;6.73;;;;;;;-145.69;69.18;52165.16;5114846;28;20676;-78
2023/10/01 05:16:06;;;;;;;24.33;7.17;;;;;;;-145.69;70.01;52157.25;5115165;27;20640;-79
2023/10/01 05:18:34;;;;;;;22.83;6.63;;;;;;;-145.69;69.88;52145.34;5114751;28;20229;-78
2023/10/01 05:21:04;;;;;;;18.83;6.50;;;;;;;-145.69;69.49;52127.53;5126463;27;20231;-79
2023/10/01 05:23:31;;;;;;;16.60;6.30;;;;;;;-145.69;70.42;52157.25;5135050;27;20204;-78
2023/10/01 05:25:57;;;;;;;22.90;6.87;;;;;;;-145.69;70.22;52171.09;5135488;27;20663;-78
2023/10/01 05:28:31;;;;;;;20.63;7.50;;;;;;;-145.69;70.01;52167.13;5135584;27;20204;-78
2023/10/01 05:30:59;;;;;;;21.73;6.87;;;;;;;-145.69;68.53;52151.28;5134793;27;20344;-79
2023/10/01 05:33:28;;;;;;;25.43;7.73;;;;;;;-145.69;68.64;52147.34;5126293;27;20217;-79
2023/10/01 05:36:00;;;;;;;21.80;6.37;;;;;;;-145.69;69.46;52143.38;5126874;27;20651;-79
2023/10/01 05:38:27;;;;;;;24.90;6.80;;;;;;;-145.69;70.08;52157.25;5134816;27;20192;-78
2023/10/01 05:40:55;;;;;;;20.03;6.80;;;;;;;-145.69;70.85;52139.41;5135013;27;20196;-78
2023/10/01 05:43:27;;;;;;;21.63;6.93;;;;;;;-145.69;69.75;52129.50;5135219;27;20212;-78
2023/10/01 05:46:01;;;;;;;19.00;6.80;;;;;;;-145.69;70.23;52167.13;5134920;27;20207;-78
2023/10/01 05:48:29;;;;;;;21.10;7.57;;;;;;;-145.69;69.63;52131.50;5134994;27;20193;-78
2023/10/01 05:50:59;;;;;;;20.93;7.10;;;;;;;-145.69;70.04;52143.38;5124525;27;20193;-78
2023/10/01 05:53:26;;;;;;;20.77;6.83;;;;;;;-145.69;69.93;52139.41;5114113;28;20248;-78
2023/10/01 05:55:52;;;;;;;22.53;7.53;;;;;;;-145.69;70.13;52147.34;5113955;28;20193;-78
2023/10/01 05:58:21;;;;;;;25.87;7.10;;;;;;;-145.69;70.75;52131.50;5113775;28;20201;-78
2023/10/01 06:00:56;;;;;;;19.20;6.40;;;;;;;-145.69;70.38;52137.44;5114363;28;20560;-78
2023/10/01 06:03:25;;;;;;;19.93;7.23;;;;;;;-145.69;71.10;52159.22;5120988;27;20233;-79
2023/10/01 06:05:57;;;;;;;29.73;7.93;;;;;;;-145.69;71.08;52171.09;5134339;27;20196;-79
2023/10/01 06:08:26;;;;;;;18.13;7.20;;;;;;;-145.69;70.73;52159.22;5132960;27;20203;-78
2023/10/01 06:11:04;;;;;;;20.57;7.10;;;;;;;-145.69;70.65;52127.53;5134434;27;20201;-78
2023/10/01 06:13:31;;;;;;;22.57;7.30;;;;;;;-145.69;70.61;52147.34;5134337;27;20224;-78
2023/10/01 06:15:59;;;;;;;20.57;6.93;;;;;;;-145.69;70.78;52171.09;5134381;27;20204;-78
2023/10/01 06:18:29;;;;;;;21.10;7.57;;;;;;;-145.69;70.92;52161.19;5134563;27;20232;-78
2023/10/01 06:20:55;;;;;;;21.53;7.87;;;;;;;-145.69;71.01;52131.50;5126654;27;20200;-79
2023/10/01 06:23:23;;;;;;;21.17;7.33;;;;;;;-145.69;71.07;52107.72;5113923;28;20208;-78
2023/10/01 06:25:53;;;;;;;21.50;7.87;;;;;;;-145.69;70.66;52129.50;5113915;28;20300;-78
2023/10/01 06:28:21;;;;;;;21.87;7.13;;;;;;;-145.69;70.09;52139.41;5113636;28;20201;-78
2023/10/01 06:30:48;;;;;;;23.83;7.47;;;;;;;-145.69;70.57;52153.28;5114655;28;20194;-78
2023/10/01 06:33:25;;;;;;;20.73;7.10;;;;;;;-145.69;70.43;52161.19;5111305;27;20557;-78
2023/10/01 06:36:15;;;;;;;21.40;7.53;;;;;;;-145.69;71.57;52147.34;5093318;28;20201;-78
2023/10/01 06:38:44;;;;;;;24.33;8.77;;;;;;;-145.69;72.71;52161.19;5114551;27;20514;-78
2023/10/01 06:41:16;;;;;;;23.60;8.33;;;;;;;-145.69;71.04;52139.41;5113516;28;20208;-78
2023/10/01 06:43:48;;;;;;;21.27;7.07;;;;;;;-145.69;70.48;52131.50;5114194;28;20207;-78
2023/10/01 06:46:16;;;;;;;25.30;6.60;;;;;;;-145.69;70.28;52109.72;5113415;28;20703;-78
2023/10/01 06:48:43;;;;;;;22.00;7.63;;;;;;;-145.69;70.53;52115.66;5113539;28;20200;-78
2023/10/01 06:51:12;;;;;;;23.73;7.33;;;;;;;-145.69;70.96;52149.31;5113627;28;20201;-78
2023/10/01 06:53:45;;;;;;;20.77;7.70;;;;;;;-145.69;70.92;52147.34;5113422;28;20262;-78
2023/10/01 06:56:15;;;;;;;19.87;6.73;;;;;;;-145.69;71.05;52131.50;5113367;28;20204;-78
2023/10/01 06:58:41;;;;;;;21.20;7.40;;;;;;;-145.69;70.72;52131.50;5113244;28;20232;-78
2023/10/01 07:01:34;;;;;;;20.23;7.50;;;;;;;-145.69;70.70;52099.81;5114623;28;20193;-78
2023/10/01 07:03:55;;;;;;;22.80;7.30;;;;;;;-145.69;70.39;52127.53;5124359;28;20280;-78
2023/10/01 07:06:22;;;;;;;17.63;6.25;;;;;;;-145.69;70.62;52121.59;5133734;27;20207;-78
2023/10/01 07:08:48;;;;;;;17.23;6.53;;;;;;;-145.69;70.50;52107.72;5134838;27;20529;-78
2023/10/01 07:11:18;;;;;;;21.67;7.13;;;;;;;-145.69;70.60;52115.66;5132280;27;20198;-78
2023/10/01 07:13:46;;;;;;;25.27;7.28;;;;;;;-145.69;70.61;52137.44;5117473;28;20228;-78
2023/10/01 07:16:17;;;;;;;22.05;7.00;;;;;;;-145.69;71.00;52131.50;5117815;28;20201;-77
2023/10/01 07:18:44;;;;;;;18.63;6.45;;;;;;;-145.69;71.24;52099.81;5117096;28;20228;-78
2023/10/01 07:21:11;;;;;;;21.40;7.18;;;;;;;-145.69;71.22;52139.41;5101031;28;20198;-78
2023/10/01 07:23:38;;;;;;;20.73;6.45;;;;;;;-145.69;71.13;52119.63;5096453;28;20197;-78
2023/10/01 07:26:10;;;;;;;17.83;6.35;;;;;;;-145.69;71.32;52103.78;5097053;28;20194;-78
2023/10/01 07:28:41;;;;;;;22.65;7.43;;;;;;;-145.69;70.92;52103.78;5096670;28;20247;-78
2023/10/01 07:31:08;;;;;;;22.90;7.03;;;;;;;-145.69;71.16;52103.78;5135544;27;20189;-78
2023/10/01 07:33:34;;;;;;;20.27;6.80;;;;;;;-145.69;71.33;52135.47;5129218;27;20229;-78
2023/10/01 07:36:10;;;;;;;18.17;6.35;;;;;;;-145.69;70.99;52101.78;5116880;28;20205;-78
2023/10/01 07:38:48;;;;;;;19.10;6.78;;;;;;;-145.69;71.05;52087.94;5116919;28;20214;-78
2023/10/01 07:41:16;;;;;;;18.08;6.32;;;;;;;-145.69;71.27;52080.00;5117176;27;20197;-78
2023/10/01 07:43:44;;;;;;;21.27;7.55;;;;;;;-145.69;71.00;52087.94;5116735;28;20205;-78
2023/10/01 07:46:10;;;;;;;21.08;6.90;;;;;;;-145.69;71.15;52107.72;5116627;28;20204;-78
2023/10/01 07:48:38;;;;;;;22.20;6.57;;;;;;;-145.69;71.10;52107.72;5116633;28;20199;-78
2023/10/01 07:51:22;;;;;;;23.35;7.18;;;;;;;-145.69;71.17;52115.66;5116895;28;20251;-79
2023/10/01 07:53:51;;;;;;;20.38;7.05;;;;;;;-145.69;71.46;52093.88;5116590;28;20695;-78
2023/10/01 07:56:21;;;;;;;22.20;6.78;;;;;;;-145.69;71.34;52105.75;5116641;28;20201;-78
2023/10/01 07:58:56;;;;;;;17.00;6.38;;;;;;;-145.69;71.09;52080.00;5116337;28;20204;-78
2023/10/01 08:01:42;;;;;;;15.57;6.47;;;;;;;-145.69;71.46;52119.63;5096295;28;20205;-79
2023/10/01 08:04:34;;;;;;;19.95;6.50;;;;;;;-145.69;71.21;52085.94;5120337;27;20224;-78
2023/10/01 08:07:03;;;;;;;20.17;7.45;;;;;;;-145.69;71.89;52083.97;5136817;27;20679;-79
2023/10/01 08:09:31;;;;;;;20.65;6.65;;;;;;;-145.69;70.61;52095.84;5136704;27;20325;-78
2023/10/01 08:12:05;;;;;;;23.02;7.18;;;;;;;-145.69;70.99;52083.97;5132600;27;20636;-78
2023/10/01 08:14:33;;;;;;;22.73;7.68;;;;;;;-145.69;69.81;52083.97;5116353;28;20580;-78
2023/10/01 08:17:00;;;;;;;21.80;7.07;;;;;;;-145.69;70.23;52089.91;5116389;28;20193;-78
2023/10/01 08:19:43;;;;;;;23.60;7.35;;;;;;;-145.69;69.84;52076.03;5115737;28;20229;-78
2023/10/01 08:22:14;;;;;;;21.75;7.70;;;;;;;-145.69;70.26;52089.91;5116341;28;20190;-79
2023/10/01 08:24:45;;;;;;;21.70;7.57;;;;;;;-145.69;70.27;52036.44;5116035;28;20201;-78
2023/10/01 08:27:12;;;;;;;19.02;7.00;;;;;;;-145.69;69.74;52072.09;5116071;28;20193;-78
2023/10/01 08:32:22;;;;;;;17.15;6.32;;;;;;;-145.69;67.78;52080.00;5122246;27;20197;-79
2023/10/01 08:35:01;;;;;;;18.27;7.10;;;;;;;-145.69;65.20;52091.88;5133083;27;20233;-79
2023/10/01 08:37:31;;;;;;;21.48;6.68;;;;;;;-145.69;65.20;52064.16;5136757;27;20287;-79
2023/10/01 08:39:57;;;;;;;18.10;6.57;;;;;;;-145.69;65.14;52085.94;5136322;27;20662;-79
2023/10/01 08:42:28;;;;;;;20.70;6.97;;;;;;;-145.69;65.17;52083.97;5136270;27;20232;-79
2023/10/01 08:45:03;;;;;;;20.63;6.47;;;;;;;-145.69;63.26;52056.25;5132134;27;20605;-79
2023/10/01 08:47:35;;;;;;;20.63;6.82;;;;;;;-145.69;57.80;52038.44;5136552;27;20206;-79
2023/10/01 08:50:28;;;;;;;18.95;6.47;;;;;;;-145.69;59.93;52078.03;5136248;27;20197;-79
2023/10/01 08:53:01;;;;;;;20.67;7.03;;;;;;;-145.69;58.66;52056.25;5136116;27;20227;-79
2023/10/01 08:55:35;;;;;;;18.98;6.30;;;;;;;-145.69;57.34;52044.38;5136057;27;20197;-79
2023/10/01 08:58:14;;;;;;;21.77;6.88;;;;;;;-145.69;55.42;52044.38;5136415;27;20199;-79
2023/10/01 09:00:48;;;;;;;17.30;6.53;;;;;;;-145.69;53.49;52036.44;5131025;27;20287;-78
2023/10/01 09:03:26;;;;;;;21.70;6.78;;;;;;;-145.69;54.03;52022.59;5122031;27;20205;-79
2023/10/01 09:06:01;;;;;;;17.25;6.75;;;;;;;-145.69;53.21;52018.63;5135927;27;20196;-79
2023/10/01 09:08:31;;;;;;;16.88;6.25;;;;;;;-145.69;53.03;52022.59;5135872;27;20202;-79
2023/10/01 09:11:00;;;;;;;15.98;5.80;;;;;;;-145.69;53.45;52026.53;5135787;27;20315;-79
2023/10/01 09:13:30;;;;;;;21.30;7.18;;;;;;;-145.69;51.98;52012.69;5105106;27;20222;-79
2023/10/01 09:16:10;;;;;;;18.88;6.63;;;;;;;-145.69;52.17;52028.53;5094669;28;20599;-79
2023/10/01 09:18:53;;;;;;;22.83;6.38;;;;;;;-145.69;54.69;52008.72;5094271;28;20673;-79
2023/10/01 09:21:28;;;;;;;19.48;6.07;;;;;;;-145.69;53.74;52034.47;5093825;28;20202;-79
2023/10/01 09:23:55;;;;;;;21.63;7.13;;;;;;;-145.69;53.00;52034.47;5093670;28;20197;-79
2023/10/01 09:26:42;;;;;;;22.50;7.18;;;;;;;-145.69;51.33;52026.53;5093504;28;20657;-79
2023/10/01 09:29:24;;;;;;;17.40;6.00;;;;;;;-145.69;52.29;52014.66;5092541;28;20205;-79
2023/10/01 09:31:54;;;;;;;16.77;6.40;;;;;;;-145.69;52.33;51996.84;5100137;28;20185;-79
2023/10/01 09:34:33;;;;;;;15.63;6.20;;;;;;;-145.69;52.11;52004.75;5118968;27;20695;-79
2023/10/01 09:37:06;;;;;;;18.20;6.13;;;;;;;-145.69;52.44;51996.84;5112923;28;20198;-79
2023/10/01 09:39:38;;;;;;;17.05;5.95;;;;;;;-145.69;51.92;52010.69;5114016;28;20197;-79
2023/10/01 09:42:22;;;;;;;16.25;5.70;;;;;;;-145.69;52.54;52028.53;5113563;28;20710;-79
2023/10/01 09:44:52;;;;;;;20.83;6.50;;;;;;;-145.69;51.70;51998.81;5117617;28;20644;-79
2023/10/01 09:47:23;;;;;;;18.55;6.28;;;;;;;-145.69;51.02;51977.03;5111565;28;20240;-79
2023/10/01 09:49:52;;;;;;;18.65;6.03;;;;;;;-145.69;51.20;52032.47;5113035;28;20544;-79
2023/10/01 09:52:30;;;;;;;19.23;7.22;;;;;;;-145.69;50.57;52016.66;5113340;28;20313;-78
2023/10/01 09:55:07;;;;;;;16.25;6.10;;;;;;;-145.69;51.09;51984.97;5113136;28;20229;-79
2023/10/01 09:57:37;;;;;;;17.20;5.93;;;;;;;-145.69;50.98;51994.88;5111431;28;20197;-79
2023/10/01 10:00:17;;;;;;;24.30;7.13;;;;;;;-145.69;50.90;51984.97;5113525;28;20279;-79
2023/10/01 10:02:51;;;;;;;23.27;6.68;;;;;;;-145.69;50.23;52000.81;5115664;28;20189;-78
2023/10/01 10:05:24;;;;;;;15.63;6.13;;;;;;;-145.69;50.37;51984.97;5103135;28;20612;-79
2023/10/01 10:08:13;;;;;;;16.67;6.07;;;;;;;-145.69;50.07;52024.56;5113652;28;20197;-80
2023/10/01 10:10:48;;;;;;;17.63;5.90;;;;;;;-145.69;49.94;51975.06;5112961;28;20185;-79
2023/10/01 10:13:36;;;;;;;19.88;6.00;;;;;;;-145.69;48.72;51975.06;5113671;28;20714;-80
2023/10/01 10:16:28;;;;;;;18.00;6.15;;;;;;;-145.69;48.98;51977.03;5113307;28;20209;-79
2023/10/01 10:19:20;;;;;;;20.20;6.93;;;;;;;-145.69;48.20;51996.84;5060078;28;1061325;-80
2023/10/01 10:22:17;;;;;;;18.58;6.30;;;;;;;-145.69;46.64;51984.97;5092645;28;20198;-80
2023/10/01 10:24:50;;;;;;;16.80;5.90;;;;;;;-145.69;47.03;51992.88;5093490;28;20675;-80
2023/10/01 10:27:47;;;;;;;18.25;6.00;;;;;;;-145.69;47.33;51971.09;5094565;28;20664;-81
2023/10/01 10:30:21;;;;;;;13.93;5.30;;;;;;;-145.69;47.68;52002.78;5093804;28;20816;-79
2023/10/01 10:33:41;;;;;;;18.80;5.93;;;;;;;-145.69;46.38;51965.16;5099520;28;20196;-80
2023/10/01 10:36:51;;;;;;;14.85;5.80;;;;;;;-145.69;46.45;51979.03;5117126;27;20196;-80
2023/10/01 10:40:26;;;;;;;19.88;6.38;;;;;;;-145.69;46.06;51953.28;5111377;28;20300;-80
2023/10/01 10:43:16;;;;;;;17.15;6.45;;;;;;;-145.69;46.12;51959.22;5111561;28;20233;-79
2023/10/01 10:45:57;;;;;;;15.35;6.00;;;;;;;-145.69;45.47;51957.25;5113343;28;20713;-79
2023/10/01 10:49:02;;;;;;;18.15;6.13;;;;;;;-145.69;44.01;51975.06;5113917;27;20568;-79
2023/10/01 10:51:48;;;;;;;19.25;6.32;;;;;;;-145.69;44.61;51953.28;5092912;28;20656;-80
2023/10/01 10:54:29;;;;;;;19.08;6.32;;;;;;;-145.69;44.29;51949.31;5110304;28;20224;-80
2023/10/01 10:56:58;;;;;;;17.13;5.50;;;;;;;-145.69;45.04;51951.28;5112170;28;20254;-80
2023/10/01 10:59:25;;;;;;;18.83;6.28;;;;;;;-145.69;45.40;51933.47;5113027;28;20201;-80
2023/10/01 11:01:56;;;;;;;15.85;5.88;;;;;;;-145.69;45.26;51965.16;5116655;28;20193;-81
2023/10/01 11:04:30;;;;;;;19.38;6.68;;;;;;;-145.69;44.51;51955.25;5107346;27;20542;-79
2023/10/01 11:07:05;;;;;;;18.55;6.32;;;;;;;-145.69;43.34;51975.06;5124491;28;20194;-80
2023/10/01 11:09:33;;;;;;;15.85;6.18;;;;;;;-145.69;44.91;51953.28;5113245;28;20205;-79
2023/10/01 11:12:19;;;;;;;17.55;6.22;;;;;;;-145.69;44.59;51973.06;5113204;28;20201;-79
2023/10/01 11:14:55;;;;;;;16.45;5.65;;;;;;;-145.69;43.89;51949.31;5112572;28;20295;-80
2023/10/01 11:17:22;;;;;;;13.23;5.90;;;;;;;-145.69;44.47;51961.19;5110053;28;20204;-80
2023/10/01 11:19:49;;;;;;;15.93;6.18;;;;;;;-145.69;44.98;51941.41;5113121;28;20614;-80
2023/10/01 11:22:22;;;;;;;15.80;6.07;;;;;;;-145.69;43.35;51939.41;5113158;28;20580;-79
2023/10/01 11:24:53;;;;;;;16.88;5.65;;;;;;;-145.69;42.62;51945.34;5111885;28;20193;-80
2023/10/01 11:27:22;;;;;;;17.77;6.30;;;;;;;-145.69;42.46;51949.31;5112975;28;20198;-81
2023/10/01 11:30:24;;;;;;;16.30;5.80;;;;;;;-145.69;42.28;51937.44;5113561;28;20243;-81
2023/10/01 11:32:58;;;;;;;15.50;6.45;;;;;;;-145.69;42.18;51925.56;5115251;28;20200;-82
2023/10/01 11:35:31;;;;;;;17.85;6.28;;;;;;;-145.69;42.18;51951.28;5120907;28;20219;-81
2023/10/01 11:38:07;;;;;;;18.17;5.97;;;;;;;-145.69;42.59;51921.59;5120867;27;20220;-79
2023/10/01 11:43:27;;;;;;;19.77;6.35;;;;;;;-145.69;42.00;51919.63;5105919;28;20208;-80
2023/10/01 11:46:24;;;;;;;15.35;6.05;;;;;;;-145.69;42.62;51957.25;5110494;28;20204;-81